KTOI/TOI METAR and TAF weather

Enter ICAO airport designator
Station Type Date Time Source
KTOI METAR 2019/05/25 09:53 UTC NOAA

KTOI 250953Z AUTO 00000KT 8SM CLR 18/18 A3014 RMK AO2 SLP199 T01830178


Station Type Date Time Source
KTOI Decoded METAR 2019/05/25 09:53 UTC NOAA

TROY MUNICIPAL AIRPORT, AL, United States (KTOI) 31-52N 086-01W 118M
May 25, 2019 - 05:53 AM EDT / 2019.05.25 0953 UTC
Wind: Calm:0
Visibility: 8 mile(s):0
Sky conditions: clear
Temperature: 64.9 F (18.3 C)
Dew Point: 64.0 F (17.8 C)
Relative Humidity: 96%
Pressure (altimeter): 30.14 in. Hg (1020 hPa)
ob: KTOI 250953Z AUTO 00000KT 8SM CLR 18/18 A3014 RMK AO2 SLP199 T01830178
cycle: 10

Station Type Date Time Source
KTOI TAF 2019/05/25 06:27 UTC NOAA

TAF KTOI 250525Z 2506/2606 00000KT P6SM SKC
FM251600 23005KT P6SM FEW050

Example: see airport list